createdAt,value
2024-02-28T00:01:30.547Z,10.10
2024-02-28T00:03:59.109Z,10.43
2024-02-28T00:06:27.866Z,10.07
2024-02-28T00:08:55.843Z,9.32
2024-02-28T00:11:23.470Z,10.82
2024-02-28T00:13:50.934Z,10.35
2024-02-28T00:16:18.337Z,9.40
2024-02-28T00:18:45.854Z,10.57
2024-02-28T00:21:13.379Z,10.23
2024-02-28T00:23:42.142Z,10.40
2024-02-28T00:26:09.754Z,10.32
2024-02-28T00:28:37.671Z,8.82
2024-02-28T00:31:05.262Z,8.85
2024-02-28T00:33:32.703Z,9.48
2024-02-28T00:36:00.145Z,9.55
2024-02-28T00:38:28.323Z,11.13
2024-02-28T00:40:57.082Z,10.52
2024-02-28T00:43:24.498Z,11.50
2024-02-28T00:45:51.994Z,9.07
2024-02-28T00:48:19.471Z,7.32
2024-02-28T00:50:47.165Z,9.93
2024-02-28T00:53:14.696Z,10.98
2024-02-28T00:55:42.107Z,10.35
2024-02-28T00:58:10.905Z,8.73
2024-02-28T01:00:38.489Z,9.60
2024-02-28T01:03:06.349Z,8.35
2024-02-28T01:05:34.182Z,8.75
2024-02-28T01:08:01.595Z,8.40
2024-02-28T01:10:29.113Z,7.68
2024-02-28T01:12:56.604Z,9.25
2024-02-28T01:15:25.705Z,7.47
2024-02-28T01:17:53.198Z,8.43
2024-02-28T01:20:20.640Z,7.53
2024-02-28T01:22:48.661Z,8.70
2024-02-28T01:25:16.212Z,8.70
2024-02-28T01:27:44.098Z,7.57
2024-02-28T01:30:12.591Z,7.53
2024-02-28T01:32:41.361Z,8.40
2024-02-28T01:35:10.832Z,7.03
2024-02-28T01:37:38.239Z,8.32
2024-02-28T01:40:06.853Z,9.38
2024-02-28T01:42:34.395Z,9.02
2024-02-28T01:45:01.850Z,7.70
2024-02-28T01:47:29.636Z,8.02
2024-02-28T01:49:58.623Z,7.18
2024-02-28T01:52:26.076Z,9.13
2024-02-28T01:54:53.876Z,8.35
2024-02-28T01:57:21.515Z,8.35
2024-02-28T01:59:49.422Z,8.05
2024-02-28T02:02:16.846Z,7.88
2024-02-28T02:04:44.265Z,9.20
2024-02-28T02:07:13.042Z,7.05
2024-02-28T02:09:40.743Z,7.28
2024-02-28T02:12:09.043Z,8.50
2024-02-28T02:14:36.449Z,8.27
2024-02-28T02:17:03.840Z,8.18
2024-02-28T02:19:31.502Z,8.27
2024-02-28T02:22:00.384Z,8.23
2024-02-28T02:24:29.293Z,8.90
2024-02-28T02:26:58.793Z,6.53
2024-02-28T02:29:26.244Z,7.57
2024-02-28T02:31:53.667Z,8.60
2024-02-28T02:34:21.114Z,6.75
2024-02-28T02:36:48.586Z,7.63
2024-02-28T02:39:16.223Z,7.10
2024-02-28T02:41:45.040Z,7.22
2024-02-28T02:44:12.474Z,8.55
2024-02-28T02:46:40.385Z,6.90
2024-02-28T02:49:07.804Z,8.60
2024-02-28T02:51:35.251Z,7.45
2024-02-28T02:54:02.734Z,8.07
2024-02-28T02:56:30.161Z,7.88
2024-02-28T02:58:58.928Z,8.80
2024-02-28T03:01:26.395Z,6.55
2024-02-28T03:03:54.017Z,8.75
2024-02-28T03:06:21.999Z,7.20
2024-02-28T03:08:49.416Z,8.13
2024-02-28T03:11:16.893Z,7.72
2024-02-28T03:13:44.352Z,9.02
2024-02-28T03:16:13.364Z,7.47
2024-02-28T03:18:40.804Z,7.90
2024-02-28T03:21:08.279Z,6.95
2024-02-28T03:23:37.154Z,8.40
2024-02-28T03:26:05.305Z,6.53
2024-02-28T03:28:32.702Z,8.07
2024-02-28T03:31:00.132Z,7.50
2024-02-28T03:33:29.148Z,7.40
2024-02-28T03:35:56.620Z,7.32
2024-02-28T03:38:24.026Z,7.75
2024-02-28T03:40:51.438Z,8.18
2024-02-28T03:43:18.849Z,7.47
2024-02-28T03:45:46.392Z,8.30
2024-02-28T03:48:14.033Z,9.10
2024-02-28T03:50:42.997Z,7.70
2024-02-28T03:53:10.455Z,8.43
2024-02-28T03:55:39.132Z,7.38
2024-02-28T03:58:09.668Z,7.63
2024-02-28T04:00:37.387Z,7.55
2024-02-28T04:03:04.466Z,7.50
2024-02-28T04:05:31.930Z,7.50
2024-02-28T04:08:00.670Z,7.70
2024-02-28T04:10:28.102Z,6.95
2024-02-28T04:12:55.782Z,9.73
2024-02-28T04:15:23.337Z,7.20
2024-02-28T04:17:50.829Z,7.35
2024-02-28T04:20:18.327Z,7.65
2024-02-28T04:22:45.753Z,7.43
2024-02-28T04:25:14.576Z,7.05
2024-02-28T04:27:42.038Z,6.82
2024-02-28T04:30:09.926Z,6.53
2024-02-28T04:32:39.374Z,6.18
2024-02-28T04:35:07.695Z,6.18
2024-02-28T04:37:35.815Z,6.03
2024-02-28T04:40:03.350Z,7.15
2024-02-28T04:42:32.130Z,5.97
2024-02-28T04:44:59.773Z,7.40
2024-02-28T04:47:33.610Z,6.40
2024-02-28T04:50:07.955Z,5.60
2024-02-28T04:52:35.635Z,6.00
2024-02-28T04:55:06.332Z,7.45
2024-02-28T04:57:35.146Z,6.97
2024-02-28T05:00:04.777Z,8.13
2024-02-28T05:02:32.187Z,7.03
2024-02-28T05:04:59.927Z,7.38
2024-02-28T05:07:27.367Z,6.57
2024-02-28T05:09:54.893Z,7.07
2024-02-28T05:12:22.378Z,7.30
2024-02-28T05:14:53.984Z,6.82
2024-02-28T05:17:22.849Z,6.15
2024-02-28T05:19:50.261Z,6.32
2024-02-28T05:22:17.747Z,6.32
2024-02-28T05:24:47.933Z,7.43
2024-02-28T05:27:15.389Z,5.95
2024-02-28T05:29:43.916Z,5.88
2024-02-28T05:32:12.806Z,5.97
2024-02-28T05:34:40.321Z,7.03
2024-02-28T05:37:07.794Z,6.88
2024-02-28T05:39:35.627Z,6.15
2024-02-28T05:42:03.110Z,6.05
2024-02-28T05:44:31.060Z,6.45
2024-02-28T05:46:58.528Z,6.05
2024-02-28T05:49:27.256Z,7.10
2024-02-28T05:51:55.569Z,6.03
2024-02-28T05:54:23.113Z,5.88
2024-02-28T05:56:50.549Z,6.40
2024-02-28T05:59:18.023Z,6.22
2024-02-28T06:01:46.656Z,5.38
2024-02-28T06:04:14.208Z,5.93
2024-02-28T06:06:43.237Z,7.43
2024-02-28T06:09:11.553Z,6.32
2024-02-28T06:11:38.973Z,7.68
2024-02-28T06:14:06.442Z,5.88
2024-02-28T06:16:33.883Z,6.65
2024-02-28T06:19:03.985Z,6.82
2024-02-28T06:21:33.337Z,6.93
2024-02-28T06:24:02.141Z,5.07
2024-02-28T06:26:29.593Z,5.57
2024-02-28T06:29:02.174Z,6.50
2024-02-28T06:31:32.305Z,6.38
2024-02-28T06:34:00.004Z,6.80
2024-02-28T06:36:27.681Z,7.22
2024-02-28T06:38:55.150Z,6.88
2024-02-28T06:41:23.889Z,7.07
2024-02-28T06:43:51.304Z,7.65
2024-02-28T06:46:19.034Z,8.38
2024-02-28T06:48:46.573Z,7.57
2024-02-28T06:51:16.535Z,7.30
2024-02-28T06:53:45.452Z,6.60
2024-02-28T06:56:12.982Z,7.72
2024-02-28T06:58:41.752Z,8.65
2024-02-28T07:01:09.257Z,7.70
2024-02-28T07:03:36.833Z,7.57
2024-02-28T07:06:04.717Z,7.35
2024-02-28T07:08:33.772Z,7.70
2024-02-28T07:11:01.347Z,7.03
2024-02-28T07:13:29.109Z,8.93
2024-02-28T07:15:58.382Z,7.60
2024-02-28T07:18:27.643Z,9.13
2024-02-28T07:20:55.085Z,7.90
2024-02-28T07:23:22.497Z,7.72
2024-02-28T07:25:49.973Z,8.45
2024-02-28T07:28:17.397Z,7.47
2024-02-28T07:30:46.069Z,9.55
2024-02-28T07:33:14.966Z,7.10
2024-02-28T07:35:48.865Z,8.27
2024-02-28T07:38:18.476Z,6.55
2024-02-28T07:40:46.018Z,7.32
2024-02-28T07:43:13.552Z,5.72
2024-02-28T07:45:41.319Z,6.70
2024-02-28T07:48:08.070Z,7.93
2024-02-28T07:50:36.929Z,7.13
2024-02-28T07:53:04.462Z,7.32
2024-02-28T07:55:31.897Z,6.57
2024-02-28T07:57:59.365Z,7.03
2024-02-28T08:00:27.376Z,6.15
2024-02-28T08:02:54.872Z,5.07
2024-02-28T08:05:22.316Z,4.93
2024-02-28T08:07:51.025Z,7.18
2024-02-28T08:10:18.488Z,5.93
2024-02-28T08:12:46.107Z,5.82
2024-02-28T08:15:13.667Z,6.22
2024-02-28T08:17:41.161Z,7.35
2024-02-28T08:20:10.085Z,7.78
2024-02-28T08:22:37.972Z,5.72
2024-02-28T08:25:07.354Z,6.57
2024-02-28T08:27:35.827Z,6.47
2024-02-28T08:30:05.044Z,7.30
2024-02-28T08:32:32.439Z,6.78
2024-02-28T08:34:59.935Z,6.53
2024-02-28T08:37:28.593Z,6.15
2024-02-28T08:39:58.831Z,6.55
2024-02-28T08:42:27.914Z,7.13
2024-02-28T08:44:55.718Z,6.63
2024-02-28T08:47:25.099Z,7.30
2024-02-28T08:49:52.976Z,6.97
2024-02-28T08:52:20.367Z,9.35
2024-02-28T08:54:48.323Z,7.22
2024-02-28T08:57:15.774Z,7.30
2024-02-28T08:59:44.528Z,6.07
2024-02-28T09:02:12.324Z,6.20
2024-02-28T09:04:39.828Z,5.60
2024-02-28T09:07:07.323Z,5.72
2024-02-28T09:09:38.896Z,6.63
2024-02-28T09:12:07.042Z,7.10
2024-02-28T09:14:34.480Z,5.18
2024-02-28T09:17:04.658Z,5.97
2024-02-28T09:19:32.800Z,5.25
2024-02-28T09:22:00.838Z,4.60
2024-02-28T09:24:28.869Z,5.30
2024-02-28T09:26:56.317Z,5.22
2024-02-28T09:29:23.741Z,5.47
2024-02-28T09:31:51.175Z,6.30
2024-02-28T09:34:19.905Z,5.50
2024-02-28T09:36:50.787Z,6.70
2024-02-28T09:39:18.778Z,5.45
2024-02-28T09:41:50.103Z,6.00
2024-02-28T09:44:18.616Z,7.20
2024-02-28T09:46:46.590Z,7.47
2024-02-28T09:49:16.804Z,6.63
2024-02-28T09:51:46.306Z,6.10
2024-02-28T09:54:13.994Z,6.22
2024-02-28T09:56:41.442Z,7.72
2024-02-28T09:59:09.567Z,7.93
2024-02-28T10:01:44.155Z,7.32
2024-02-28T10:04:13.892Z,7.40
2024-02-28T10:06:41.925Z,7.60
2024-02-28T10:09:11.842Z,7.07
2024-02-28T10:11:42.397Z,8.45
2024-02-28T10:14:10.662Z,7.93
2024-02-28T10:16:38.100Z,9.50
2024-02-28T10:19:07.492Z,8.38
2024-02-28T10:21:35.859Z,8.02
2024-02-28T10:24:05.468Z,9.27
2024-02-28T10:26:39.427Z,8.18
2024-02-28T10:29:10.004Z,9.60
2024-02-28T10:31:38.778Z,8.77
2024-02-28T10:34:06.565Z,9.02
2024-02-28T10:36:34.934Z,9.20
2024-02-28T10:39:02.870Z,7.85
2024-02-28T10:41:30.536Z,10.02
2024-02-28T10:43:59.377Z,9.05
2024-02-28T10:46:35.984Z,8.45
2024-02-28T10:49:05.278Z,8.45
2024-02-28T10:51:36.681Z,9.25
2024-02-28T10:54:12.304Z,8.18
2024-02-28T10:56:40.518Z,8.45
2024-02-28T10:59:11.899Z,9.18
2024-02-28T11:01:43.432Z,8.45
2024-02-28T11:04:12.233Z,7.82
2024-02-28T11:06:50.249Z,8.82
2024-02-28T11:09:23.513Z,7.85
2024-02-28T11:11:51.638Z,9.02
2024-02-28T11:14:22.639Z,8.95
2024-02-28T11:17:01.047Z,6.93
2024-02-28T11:19:30.635Z,7.32
2024-02-28T11:21:59.347Z,6.90
2024-02-28T11:24:31.845Z,7.72
2024-02-28T11:26:59.550Z,8.00
2024-02-28T11:29:30.171Z,7.15
2024-02-28T11:31:57.900Z,8.75
2024-02-28T11:34:25.468Z,6.40
2024-02-28T11:36:54.594Z,6.07
2024-02-28T11:39:25.837Z,7.32
2024-02-28T11:41:53.573Z,7.20
2024-02-28T11:44:21.550Z,6.80
2024-02-28T11:46:51.069Z,7.40
2024-02-28T11:49:20.253Z,7.47
2024-02-28T11:51:49.073Z,7.00
2024-02-28T11:54:16.599Z,7.18
2024-02-28T11:56:44.335Z,7.50
2024-02-28T11:59:14.590Z,6.13
2024-02-28T12:01:45.605Z,6.28
2024-02-28T12:04:15.344Z,6.78
2024-02-28T12:06:43.112Z,6.05
2024-02-28T12:09:10.913Z,6.15
2024-02-28T12:11:39.000Z,6.75
2024-02-28T12:14:09.964Z,6.95
2024-02-28T12:16:39.582Z,7.72
2024-02-28T12:19:09.892Z,7.43
2024-02-28T12:21:39.091Z,6.38
2024-02-28T12:24:09.949Z,7.30
2024-02-28T12:26:37.669Z,8.38
2024-02-28T12:29:05.103Z,7.63
2024-02-28T12:31:32.575Z,6.50
2024-02-28T12:34:00.447Z,7.55
2024-02-28T12:36:28.614Z,7.43
2024-02-28T12:38:57.363Z,8.43
2024-02-28T12:41:24.905Z,9.63
2024-02-28T12:43:52.472Z,9.07
2024-02-28T12:46:19.965Z,9.68
2024-02-28T12:48:48.587Z,8.68
2024-02-28T12:51:37.409Z,7.72
2024-02-28T12:54:06.833Z,8.40
2024-02-28T12:56:34.326Z,9.05
2024-02-28T12:59:01.778Z,8.43
2024-02-28T13:01:29.859Z,8.65
2024-02-28T13:03:57.736Z,8.05
2024-02-28T13:06:25.331Z,10.88
2024-02-28T13:08:53.493Z,8.70
2024-02-28T13:11:23.344Z,9.00
2024-02-28T13:13:52.472Z,7.18
2024-02-28T13:16:20.569Z,8.90
2024-02-28T13:18:48.259Z,7.80
2024-02-28T13:21:15.780Z,9.20
2024-02-28T13:23:43.229Z,7.82
2024-02-28T13:26:18.518Z,7.32
2024-02-28T13:28:50.238Z,9.38
2024-02-28T13:31:19.674Z,7.10
2024-02-28T13:33:49.480Z,8.07
2024-02-28T13:36:17.154Z,8.55
2024-02-28T13:38:45.273Z,7.57
2024-02-28T13:41:12.800Z,8.25
2024-02-28T13:43:40.316Z,8.90
2024-02-28T13:46:10.877Z,8.23
2024-02-28T13:48:38.424Z,8.82
2024-02-28T13:51:06.850Z,9.32
2024-02-28T13:53:34.311Z,6.68
2024-02-28T13:56:01.841Z,9.15
2024-02-28T13:58:36.397Z,9.18
2024-02-28T14:01:09.044Z,8.95
2024-02-28T14:03:36.689Z,10.55
2024-02-28T14:06:04.500Z,9.27
2024-02-28T14:08:35.664Z,8.07
2024-02-28T14:11:03.826Z,8.98
2024-02-28T14:13:31.292Z,9.82
2024-02-28T14:15:58.812Z,8.30
2024-02-28T14:18:27.597Z,8.45
2024-02-28T14:20:55.024Z,9.02
2024-02-28T14:23:22.483Z,9.48
2024-02-28T14:25:49.913Z,9.70
2024-02-28T14:28:19.150Z,9.95
2024-02-28T14:30:49.637Z,9.38
2024-02-28T14:33:17.169Z,8.55
2024-02-28T14:35:46.032Z,8.45
2024-02-28T14:38:13.474Z,9.25
2024-02-28T14:40:41.586Z,10.10
2024-02-28T14:43:09.562Z,10.07
2024-02-28T14:45:39.950Z,9.30
2024-02-28T14:48:09.413Z,8.45
2024-02-28T14:50:36.928Z,9.43
2024-02-28T14:53:06.010Z,9.07
2024-02-28T14:55:33.440Z,9.20
2024-02-28T14:58:01.476Z,9.00
2024-02-28T15:00:29.707Z,10.13
2024-02-28T15:02:57.407Z,10.38
2024-02-28T15:05:25.812Z,8.85
2024-02-28T15:07:53.296Z,9.20
2024-02-28T15:10:22.203Z,9.45
2024-02-28T15:12:49.791Z,9.52
2024-02-28T15:15:17.308Z,9.95
2024-02-28T15:17:45.857Z,9.48
2024-02-28T15:20:13.467Z,10.05
2024-02-28T15:22:40.906Z,10.25
2024-02-28T15:25:09.937Z,10.30
2024-02-28T15:27:38.795Z,9.30
2024-02-28T15:30:08.037Z,9.55
2024-02-28T15:32:35.547Z,8.63
2024-02-28T15:35:03.067Z,9.80
2024-02-28T15:37:30.567Z,9.82
2024-02-28T15:39:58.001Z,9.38
2024-02-28T15:42:25.756Z,9.75
2024-02-28T15:44:54.514Z,9.50
2024-02-28T15:47:23.104Z,9.80
2024-02-28T15:49:50.544Z,10.05
2024-02-28T15:52:18.054Z,10.15
2024-02-28T15:54:45.684Z,8.85
2024-02-28T15:57:13.106Z,9.98
2024-02-28T15:59:41.602Z,9.80
2024-02-28T16:02:12.891Z,10.13
2024-02-28T16:04:40.491Z,9.73
2024-02-28T16:07:08.683Z,10.23
2024-02-28T16:09:37.722Z,10.27
2024-02-28T16:12:05.751Z,8.98
2024-02-28T16:14:33.185Z,8.63
2024-02-28T16:17:00.586Z,10.40
2024-02-28T16:19:29.384Z,9.40
2024-02-28T16:21:57.037Z,10.82
2024-02-28T16:24:24.671Z,8.27
2024-02-28T16:26:52.233Z,10.48
2024-02-28T16:29:20.809Z,10.25
2024-02-28T16:31:50.376Z,9.57
2024-02-28T16:34:20.496Z,9.50
2024-02-28T16:36:49.924Z,10.02
2024-02-28T16:39:19.052Z,10.02
2024-02-28T16:41:46.700Z,11.07
2024-02-28T16:44:14.168Z,10.48
2024-02-28T16:46:41.654Z,11.57
2024-02-28T16:49:09.254Z,11.38
2024-02-28T16:51:38.923Z,11.55
2024-02-28T16:54:08.752Z,10.07
2024-02-28T16:56:36.159Z,12.68
2024-02-28T16:59:03.624Z,10.55
2024-02-28T17:01:31.203Z,9.90
2024-02-28T17:03:59.154Z,12.18
2024-02-28T17:06:26.684Z,11.07
2024-02-28T17:08:54.202Z,11.50
2024-02-28T17:11:23.069Z,10.65
2024-02-28T17:13:50.551Z,11.00
2024-02-28T17:16:18.633Z,10.90
2024-02-28T17:18:46.266Z,11.70
2024-02-28T17:21:13.840Z,11.80
2024-02-28T17:23:41.296Z,11.63
2024-02-28T17:26:08.800Z,11.68
2024-02-28T17:28:37.546Z,10.70
2024-02-28T17:31:05.428Z,12.07
2024-02-28T17:33:32.964Z,11.35
2024-02-28T17:36:00.441Z,11.57
2024-02-28T17:38:27.858Z,13.75
2024-02-28T17:40:55.409Z,13.20
2024-02-28T17:43:23.184Z,11.73
2024-02-28T17:45:54.601Z,13.23
2024-02-28T17:48:22.105Z,12.13
2024-02-28T17:50:51.010Z,11.70
2024-02-28T17:53:18.416Z,11.55
2024-02-28T17:55:45.811Z,11.45
2024-02-28T17:58:13.293Z,11.07
2024-02-28T18:00:40.807Z,11.85
2024-02-28T18:03:09.610Z,11.93
2024-02-28T18:05:37.028Z,11.27
2024-02-28T18:08:04.758Z,11.23
2024-02-28T18:10:32.204Z,10.60
2024-02-28T18:13:00.910Z,11.00
2024-02-28T18:15:28.791Z,10.77
2024-02-28T18:17:56.256Z,10.82
2024-02-28T18:20:25.151Z,11.48
2024-02-28T18:22:52.569Z,12.48
2024-02-28T18:25:20.309Z,9.90
2024-02-28T18:27:47.817Z,13.00
2024-02-28T18:30:16.419Z,11.90
2024-02-28T18:32:45.882Z,11.02
2024-02-28T18:35:15.555Z,11.45
2024-02-28T18:37:44.332Z,12.70
2024-02-28T18:40:16.534Z,12.98
2024-02-28T18:42:44.396Z,12.73
2024-02-28T18:45:12.377Z,12.25
2024-02-28T18:47:41.397Z,10.82
2024-02-28T18:50:09.645Z,11.48
2024-02-28T18:52:37.065Z,12.70
2024-02-28T18:55:06.748Z,12.60
2024-02-28T18:57:34.225Z,11.90
2024-02-28T19:00:01.672Z,11.95
2024-02-28T19:02:30.582Z,12.35
2024-02-28T19:04:57.998Z,12.52
2024-02-28T19:07:25.416Z,10.93
2024-02-28T19:09:53.682Z,13.88
2024-02-28T19:12:22.458Z,12.65
2024-02-28T19:14:49.875Z,12.57
2024-02-28T19:17:17.426Z,11.57
2024-02-28T19:19:44.888Z,12.45
2024-02-28T19:22:12.341Z,12.25
2024-02-28T19:24:39.889Z,11.77
2024-02-28T19:27:07.321Z,11.45
2024-02-28T19:29:37.579Z,12.00
2024-02-28T19:32:05.546Z,11.63
2024-02-28T19:34:32.954Z,11.23
2024-02-28T19:37:00.592Z,12.40
2024-02-28T19:39:28.059Z,11.93
2024-02-28T19:41:57.238Z,13.48
2024-02-28T19:44:24.727Z,11.45
2024-02-28T19:46:53.455Z,12.57
2024-02-28T19:49:20.891Z,11.43
2024-02-28T19:51:48.358Z,11.60
2024-02-28T19:54:16.042Z,11.75
2024-02-28T19:56:43.555Z,11.15
2024-02-28T19:59:11.016Z,12.57
2024-02-28T20:01:38.594Z,11.20
2024-02-28T20:04:07.538Z,11.90
2024-02-28T20:06:42.308Z,10.60
2024-02-28T20:09:09.859Z,12.02
2024-02-28T20:11:37.486Z,10.82
2024-02-28T20:14:04.998Z,12.30
2024-02-28T20:16:32.687Z,11.98
2024-02-28T20:19:00.208Z,11.18
2024-02-28T20:21:31.324Z,12.00
2024-02-28T20:23:58.949Z,11.77
2024-02-28T20:26:26.763Z,11.43
2024-02-28T20:28:54.853Z,11.57
2024-02-28T20:31:23.100Z,11.32
2024-02-28T20:33:51.054Z,11.30
2024-02-28T20:36:18.766Z,10.75
2024-02-28T20:38:48.610Z,11.18
2024-02-28T20:41:18.094Z,11.93
2024-02-28T20:43:45.554Z,13.38
2024-02-28T20:46:13.030Z,11.23
2024-02-28T20:48:42.195Z,11.07
2024-02-28T20:51:09.827Z,11.57
2024-02-28T20:53:39.671Z,10.63
2024-02-28T20:56:09.627Z,12.73
2024-02-28T20:58:37.500Z,11.50
2024-02-28T21:01:05.767Z,10.98
2024-02-28T21:03:33.422Z,10.63
2024-02-28T21:06:00.916Z,11.85
2024-02-28T21:08:28.329Z,11.70
2024-02-28T21:10:55.764Z,10.45
2024-02-28T21:13:24.550Z,11.38
2024-02-28T21:15:51.965Z,11.10
2024-02-28T21:18:19.485Z,10.38
2024-02-28T21:20:46.890Z,10.32
2024-02-28T21:23:14.371Z,10.60
2024-02-28T21:25:41.848Z,11.88
2024-02-28T21:28:09.373Z,12.38
2024-02-28T21:30:38.568Z,10.30
2024-02-28T21:33:06.720Z,10.57
2024-02-28T21:35:34.178Z,10.73
2024-02-28T21:38:01.568Z,9.80
2024-02-28T21:40:30.214Z,10.35
2024-02-28T21:42:57.899Z,9.57
2024-02-28T21:45:25.447Z,9.18
2024-02-28T21:47:56.246Z,10.35
2024-02-28T21:50:23.976Z,10.27
2024-02-28T21:52:52.423Z,9.73
2024-02-28T21:55:20.021Z,7.53
2024-02-28T21:57:47.480Z,8.70
2024-02-28T22:00:15.624Z,8.48
2024-02-28T22:02:43.026Z,8.00
2024-02-28T22:05:11.742Z,8.52
2024-02-28T22:07:39.144Z,9.52
2024-02-28T22:10:07.725Z,8.00
2024-02-28T22:12:37.669Z,8.40
2024-02-28T22:15:08.911Z,7.30
2024-02-28T22:17:36.386Z,8.88
2024-02-28T22:20:04.104Z,7.40
2024-02-28T22:22:32.827Z,8.88
2024-02-28T22:25:00.418Z,9.98
2024-02-28T22:27:27.992Z,8.00
2024-02-28T22:29:57.153Z,8.85
2024-02-28T22:32:25.937Z,7.72
2024-02-28T22:34:53.381Z,7.85
2024-02-28T22:37:20.798Z,8.65
2024-02-28T22:39:49.551Z,8.32
2024-02-28T22:42:16.994Z,8.40
2024-02-28T22:44:45.825Z,9.00
2024-02-28T22:47:13.432Z,8.13
2024-02-28T22:49:41.633Z,7.68
2024-02-28T22:52:09.262Z,7.38
2024-02-28T22:54:36.960Z,7.07
2024-02-28T22:57:06.326Z,7.60
2024-02-28T22:59:33.723Z,8.93
2024-02-28T23:02:01.315Z,9.27
2024-02-28T23:04:28.788Z,8.48
2024-02-28T23:06:56.811Z,8.20
2024-02-28T23:09:24.293Z,8.43
2024-02-28T23:11:51.685Z,7.70
2024-02-28T23:14:20.422Z,8.43
2024-02-28T23:16:47.828Z,8.88
2024-02-28T23:19:15.326Z,7.70
2024-02-28T23:21:44.246Z,8.30
2024-02-28T23:24:11.987Z,7.45
2024-02-28T23:26:39.374Z,8.52
2024-02-28T23:29:06.809Z,6.97
2024-02-28T23:31:35.731Z,9.52
2024-02-28T23:34:03.233Z,8.10
2024-02-28T23:36:30.794Z,8.05
2024-02-28T23:38:58.635Z,7.50
2024-02-28T23:41:26.049Z,7.55
2024-02-28T23:43:55.188Z,7.15
2024-02-28T23:46:24.824Z,7.20
2024-02-28T23:48:53.557Z,8.32
2024-02-28T23:51:20.982Z,8.93
2024-02-28T23:53:48.403Z,8.35
2024-02-28T23:56:15.808Z,6.32
2024-02-28T23:58:43.385Z,7.72
